Juanjui Airport
SPJI : now visible

Airfield :











YOU CAN JOIN US ON...

 
LOGIN :

Register | Disclaimer

   EN    FR    IT 

 









Legend :    VFR   Marginal VFR   IFR   Intensive IFR   Very Intensive IFR
Visi :
Ceiling :
>= 8 km
>= 3000ft
5 to 8 km
1000 to 3000 ft
1500m to 5 km
500 to 1000 ft
800 to 1500m
200 to 500 ft
< 800m
< 200 ft
Symbols :   Thunderstorms  Fog  Heavy snow  Heavy precipitations  Wind > 20 kt






- Airport Elevation : 1148 ft
- IATA code : JJI


SPJI - Juanjui

METAR N/A
TAF SPJI
Valid from the 12 at 18:00 until the 13 at 18:00 UTC


121700Z 1218/1318 15005KT 9999 SCT020 BKN090 TX34/1220Z TN21/1311Z
TEMPO 1300/1304 05003KT 5000 -DZRA BKN015 BKN080
BECMG 1305/1307 00000KT SCT020 BKN090
TEMPO 1310/1312 8000 SCT012 BKN090



MET'MAP, your aeronautical weather chart ! - Copyright ORBIFLY December 2007 - Disclaimer

ORBIFLY MET'MAP TEAM :

Programming & Development : Alexandra Zaïnal
Concept & original design : Baudouin d'Aumeries
Assistance for programming : Marc-Olivier Méhu
Technical & hardware support : Manuel Goepfert

Contact : metmap@orbifly.com




SOURCES & CREDITS :

   NOAA       Earth
Advisory